Time;durP1;ratioP1;P1;durP2;ratioP2;P2;SDS_P1;SDS_P2;PMS_P1;PMS_P2;Temp;Humidity;BMP_temperature;BMP_pressure;BME280_temperature;BME280_humidity;BME280_pressure;Samples;Min_cycle;Max_cycle;Signal;HPM_P1;HPM_P2
2023/07/16 00:01:59;;;;;;;9.20;8.07;;;22.20;94.90;;;21.27;86.80;99984.81;12321028;23;96431;-84
2023/07/16 00:07:02;;;;;;;9.35;8.38;;;22.10;95.20;;;21.23;87.42;99984.50;12321133;23;96748;-84
2023/07/16 00:12:06;;;;;;;9.20;8.30;;;22.10;95.60;;;21.19;87.08;99983.31;12319901;23;96433;-84
2023/07/16 00:17:10;;;;;;;9.60;8.63;;;22.10;95.80;;;21.16;87.82;99994.59;12367455;23;96465;-84
2023/07/16 00:22:14;;;;;;;9.32;8.43;;;22.10;96.10;;;21.08;87.91;99998.53;12342717;23;97170;-84
2023/07/16 00:27:17;;;;;;;9.10;8.25;;;22.00;96.40;;;20.99;88.95;99988.34;12342263;23;96759;-84
2023/07/16 00:32:21;;;;;;;8.95;8.10;;;21.90;96.70;;;20.95;89.44;99988.00;12319369;23;96956;-84
2023/07/16 00:37:25;;;;;;;9.52;8.13;;;21.80;97.10;;;20.90;89.66;99979.81;12343474;23;96405;-84
2023/07/16 00:42:29;;;;;;;8.98;7.55;;;21.80;97.40;;;20.88;90.10;99975.72;12342210;23;97071;-84
2023/07/16 00:47:32;;;;;;;9.73;7.45;;;21.80;98.00;;;20.88;90.23;99981.94;12341812;23;96885;-84
2023/07/16 00:52:36;;;;;;;9.18;7.03;;;21.80;98.00;;;20.83;90.50;99979.13;12318924;23;96501;-84
2023/07/16 00:57:40;;;;;;;10.82;7.47;;;21.80;98.30;;;20.82;90.42;99977.50;12341462;23;96459;-84
2023/07/16 01:02:43;;;;;;;8.05;7.22;;;21.70;98.50;;;20.76;90.68;99973.88;12335858;23;96553;-84
2023/07/16 01:07:59;;;;;;;7.90;6.90;;;21.70;98.80;;;20.72;91.03;99967.31;12339580;23;96567;-84
2023/07/16 01:13:04;;;;;;;8.25;7.38;;;21.70;99.10;;;20.66;92.05;99962.03;12319635;23;96386;-84
2023/07/16 01:18:07;;;;;;;8.57;7.00;;;21.60;99.50;;;20.63;92.12;99973.31;12342521;23;96418;-84
2023/07/16 01:23:27;;;;;;;8.02;7.05;;;21.50;99.70;;;20.61;92.29;99964.63;12342358;23;96520;-84
2023/07/16 01:29:27;;;;;;;7.97;7.23;;;21.50;99.90;;;20.56;92.74;99971.56;12343096;23;96550;-84
2023/07/16 01:34:33;;;;;;;8.60;7.07;;;21.50;99.90;;;20.52;92.94;99969.59;12364646;23;96497;-86
2023/07/16 01:39:37;;;;;;;8.00;7.00;;;21.50;99.90;;;20.48;92.73;99963.84;12343986;23;96898;-86
2023/07/16 01:44:41;;;;;;;7.88;6.72;;;21.40;99.90;;;20.46;92.48;99962.47;12341431;23;96853;-85
2023/07/16 01:49:45;;;;;;;8.75;6.68;;;21.40;99.90;;;20.37;93.23;99958.44;12366509;23;96763;-86
2023/07/16 01:54:48;;;;;;;7.05;6.35;;;21.30;99.90;;;20.34;93.36;99954.34;12341258;23;96901;-86
2023/07/16 01:59:52;;;;;;;8.38;6.68;;;21.30;99.90;;;20.23;93.58;99952.50;12341542;23;96807;-86
2023/07/16 02:04:56;;;;;;;7.40;6.70;;;21.20;99.90;;;20.20;94.01;99958.34;12366512;23;96634;-86
2023/07/16 02:09:59;;;;;;;10.00;6.88;;;21.10;99.90;;;20.15;93.91;99948.28;12341662;23;96648;-86
2023/07/16 02:15:03;;;;;;;7.53;6.40;;;21.10;99.90;;;20.03;94.32;99953.69;12365607;23;96475;-86
2023/07/16 02:20:08;;;;;;;7.88;6.30;;;21.00;99.90;;;19.93;94.99;99950.75;12345229;23;96443;-86
2023/07/16 02:25:12;;;;;;;5.80;5.28;;;20.90;99.90;;;19.89;95.58;99956.84;12344652;23;96493;-86
2023/07/16 02:30:17;;;;;;;6.93;6.03;;;20.80;99.90;;;19.89;96.17;99952.28;12344008;23;96415;-86
2023/07/16 02:35:20;;;;;;;6.38;5.47;;;20.80;99.90;;;19.89;95.92;99962.25;12341400;23;96936;-86
2023/07/16 02:40:24;;;;;;;7.35;5.45;;;20.80;99.90;;;19.85;95.86;99956.53;12367255;23;96421;-86
2023/07/16 02:45:27;;;;;;;8.27;5.90;;;20.80;99.90;;;19.81;95.61;99949.94;12319997;23;97008;-85
2023/07/16 02:50:35;;;;;;;8.63;6.38;;;20.80;99.90;;;19.74;96.04;99950.06;12343601;23;96536;-85
2023/07/16 02:55:39;;;;;;;6.93;5.85;;;20.70;99.90;;;19.68;96.15;99956.38;12344413;23;97497;-86
2023/07/16 03:00:42;;;;;;;7.72;6.30;;;20.70;99.90;;;19.60;96.39;99945.94;12365892;23;96426;-86
2023/07/16 03:05:46;;;;;;;8.57;6.05;;;20.60;99.90;;;19.60;96.47;99959.41;12343884;23;96439;-86
2023/07/16 03:10:49;;;;;;;6.65;5.40;;;20.50;99.90;;;19.59;96.87;99970.44;12344064;23;96788;-86
2023/07/16 03:15:53;;;;;;;7.22;5.28;;;20.50;99.90;;;19.56;97.14;99969.00;12367148;23;96469;-86
2023/07/16 03:20:58;;;;;;;5.85;5.22;;;20.50;99.90;;;19.58;97.13;99972.31;12343930;23;96446;-86
2023/07/16 03:26:01;;;;;;;8.02;5.32;;;20.50;99.90;;;19.62;97.43;99969.97;12345394;23;96428;-86
2023/07/16 03:31:05;;;;;;;6.70;5.60;;;20.60;99.90;;;19.64;97.37;99984.03;12367276;23;96366;-86
2023/07/16 03:36:09;;;;;;;10.40;5.93;;;20.60;99.90;;;19.68;97.28;99979.81;12367785;23;96843;-86
2023/07/16 03:41:12;;;;;;;7.45;5.78;;;20.60;99.90;;;19.80;97.67;99993.31;12342831;23;96585;-85
2023/07/16 03:46:16;;;;;;;5.35;4.85;;;20.70;99.90;;;19.89;96.95;99995.41;12366221;23;96472;-86
2023/07/16 03:51:20;;;;;;;6.30;4.78;;;20.80;99.90;;;19.99;97.38;100006.47;12342888;23;96614;-86
2023/07/16 03:56:24;;;;;;;8.95;6.10;;;20.90;99.90;;;20.11;96.90;99998.38;12343152;23;96772;-86
2023/07/16 04:01:27;;;;;;;6.15;4.88;;;21.10;99.90;;;20.25;96.80;99993.53;12324410;23;96561;-86
2023/07/16 04:06:31;;;;;;;7.18;4.75;;;21.20;99.90;;;20.38;95.30;99997.88;12342522;23;96759;-86
2023/07/16 04:11:34;;;;;;;7.30;5.18;;;21.40;99.90;;;20.53;94.58;100007.16;12371083;23;96316;-86
2023/07/16 04:16:38;;;;;;;6.53;4.30;;;21.50;99.90;;;20.62;93.30;100010.28;12343269;23;96391;-85
2023/07/16 04:21:43;;;;;;;5.68;4.03;;;21.60;99.90;;;20.73;91.03;100008.63;12342804;23;96837;-84
2023/07/16 04:26:47;;;;;;;5.30;3.67;;;21.60;99.90;;;20.82;88.64;100012.59;12343187;23;96512;-84
2023/07/16 04:31:51;;;;;;;4.72;4.22;;;21.80;99.90;;;20.96;87.83;100010.44;12366271;23;96586;-84
2023/07/16 04:36:54;;;;;;;7.30;3.92;;;21.90;99.90;;;21.09;85.92;100005.56;12341160;23;97224;-84
2023/07/16 04:41:58;;;;;;;6.88;3.90;;;22.00;99.90;;;21.25;84.70;100008.56;12343703;23;96428;-84
2023/07/16 04:47:02;;;;;;;5.78;3.75;;;22.20;99.90;;;21.38;83.78;100013.69;12318946;23;96781;-84
2023/07/16 04:52:06;;;;;;;4.60;4.03;;;22.30;99.90;;;21.52;82.80;100016.88;12343321;23;96585;-85
2023/07/16 04:57:10;;;;;;;6.40;3.60;;;22.40;99.90;;;21.64;82.63;100023.88;12365853;23;96627;-84
2023/07/16 05:02:16;;;;;;;4.78;3.97;;;22.60;99.90;;;21.81;83.17;100032.00;12357378;23;97166;-84
2023/07/16 05:07:19;;;;;;;8.05;3.78;;;22.70;99.90;;;21.94;79.71;100027.31;12365262;23;96812;-85
2023/07/16 05:12:23;;;;;;;5.70;3.58;;;22.90;99.70;;;22.08;80.14;100034.88;12343173;23;96512;-84
2023/07/16 05:17:27;;;;;;;6.50;3.10;;;23.00;99.80;;;22.24;78.03;100040.53;12345284;23;96714;-84
2023/07/16 05:22:32;;;;;;;6.57;3.60;;;23.20;99.50;;;22.38;77.39;100031.00;12345205;23;96560;-84
2023/07/16 05:27:36;;;;;;;6.70;3.47;;;23.40;99.60;;;22.56;77.81;100019.06;12369957;23;96312;-84
2023/07/16 05:32:40;;;;;;;6.20;3.58;;;23.50;99.30;;;22.77;76.02;100025.53;12344918;23;96761;-84
2023/07/16 05:37:44;;;;;;;4.38;3.42;;;23.70;99.00;;;22.96;74.66;100026.88;12344987;23;96498;-84
2023/07/16 05:42:48;;;;;;;5.28;3.20;;;23.90;98.20;;;23.15;74.18;100033.63;12345625;23;96344;-84
2023/07/16 05:47:51;;;;;;;5.40;3.33;;;24.10;97.50;;;23.27;72.58;100030.78;12369597;23;96467;-84
2023/07/16 05:52:55;;;;;;;5.75;3.30;;;24.20;96.60;;;23.44;73.37;100033.34;12368310;23;96570;-83
2023/07/16 05:57:58;;;;;;;5.18;3.33;;;24.30;96.60;;;23.61;72.21;100031.34;12367377;23;97218;-84
2023/07/16 06:03:03;;;;;;;8.02;3.70;;;24.50;96.00;;;23.77;71.17;100035.88;12355564;23;96507;-84
2023/07/16 06:08:07;;;;;;;4.95;2.90;;;24.70;95.60;;;23.88;70.00;100035.97;12345651;23;96391;-84
2023/07/16 06:13:11;;;;;;;4.68;3.30;;;24.80;95.10;;;24.04;69.59;100030.34;12345084;23;96594;-85
2023/07/16 06:18:14;;;;;;;5.30;3.83;;;25.00;94.70;;;24.21;68.71;100038.34;12344415;23;96515;-85
2023/07/16 06:23:21;;;;;;;3.45;2.88;;;25.20;94.20;;;24.40;68.12;100038.78;12368812;23;96521;-84
2023/07/16 06:28:24;;;;;;;5.43;3.28;;;25.40;94.10;;;24.57;67.02;100038.59;12320788;23;96841;-85
2023/07/16 06:33:28;;;;;;;4.28;3.20;;;25.50;93.70;;;24.72;66.31;100027.81;12345194;23;96476;-85
2023/07/16 06:38:31;;;;;;;4.30;3.90;;;25.70;93.30;;;24.90;65.54;100036.59;12343955;23;96841;-85
2023/07/16 06:43:35;;;;;;;4.32;3.60;;;25.90;92.80;;;25.07;65.83;100037.22;12344170;23;96633;-84
2023/07/16 06:48:39;;;;;;;6.13;3.75;;;26.10;92.80;;;25.21;64.73;100019.28;12319837;23;96581;-85
2023/07/16 06:53:42;;;;;;;5.13;3.33;;;26.20;92.20;;;25.38;64.18;100035.38;12343669;23;96558;-85
2023/07/16 06:58:46;;;;;;;6.00;3.72;;;26.40;92.00;;;25.56;63.90;100023.16;12344186;23;96619;-85
2023/07/16 07:03:50;;;;;;;5.90;3.80;;;26.50;91.70;;;25.72;62.04;100022.06;12344344;23;96483;-84
2023/07/16 07:08:54;;;;;;;4.00;3.10;;;26.70;91.10;;;25.93;63.06;100022.09;12366637;23;96555;-85
2023/07/16 07:13:57;;;;;;;4.00;3.33;;;26.90;91.00;;;26.12;60.79;100023.16;12351175;23;96618;-84
2023/07/16 07:19:01;;;;;;;6.18;2.88;;;27.10;90.50;;;26.28;60.48;100013.88;12343872;23;96488;-84
2023/07/16 07:24:04;;;;;;;5.28;2.72;;;27.30;90.20;;;26.49;59.97;100009.19;12369342;23;96330;-85
2023/07/16 07:29:08;;;;;;;3.05;2.75;;;27.50;89.80;;;26.67;59.76;100008.59;12366765;23;96338;-85
2023/07/16 07:34:12;;;;;;;5.50;2.92;;;27.60;89.40;;;26.85;59.00;100012.59;12368196;23;96540;-85
2023/07/16 07:39:16;;;;;;;4.22;2.95;;;27.80;88.80;;;26.98;57.93;100013.88;12341727;23;96560;-85
2023/07/16 07:44:20;;;;;;;3.67;2.85;;;27.90;87.60;;;27.16;57.86;99996.09;12338427;23;96959;-85
2023/07/16 07:49:23;;;;;;;6.88;3.17;;;28.10;87.20;;;27.38;58.47;99999.22;12343370;23;96890;-85
2023/07/16 07:54:26;;;;;;;5.07;3.13;;;28.30;87.40;;;27.61;57.00;99992.22;12366875;23;96478;-87
2023/07/16 07:59:31;;;;;;;4.65;3.03;;;28.60;85.60;;;27.78;55.83;99991.03;12344505;23;96443;-85
2023/07/16 08:04:34;;;;;;;5.45;3.30;;;28.80;85.10;;;28.04;56.10;99986.13;12341906;23;96777;-85
2023/07/16 08:09:38;;;;;;;4.30;2.63;;;29.00;84.80;;;28.23;54.50;99985.09;12342831;23;96850;-85
2023/07/16 08:14:42;;;;;;;4.03;2.70;;;29.10;83.40;;;28.38;53.47;99975.16;12367003;23;96478;-85
2023/07/16 08:19:46;;;;;;;5.38;3.08;;;29.30;82.20;;;28.61;53.92;99979.78;12369378;23;96864;-85
2023/07/16 08:24:53;;;;;;;5.50;3.47;;;29.50;82.40;;;28.86;53.23;99978.63;12365887;23;96730;-85
2023/07/16 08:29:57;;;;;;;4.00;3.08;;;29.80;81.20;;;29.04;51.28;99975.13;12338260;23;96763;-86
2023/07/16 08:35:00;;;;;;;6.65;2.88;;;30.00;79.30;;;29.24;51.74;99979.47;12315974;23;97059;-86
2023/07/16 08:40:09;;;;;;;6.15;3.10;;;30.20;79.30;;;29.43;50.61;99976.69;12366083;23;96369;-86
2023/07/16 08:45:18;;;;;;;4.30;3.15;;;30.40;77.80;;;29.67;50.41;99973.88;12318780;23;97127;-86
2023/07/16 08:50:28;;;;;;;6.75;3.33;;;30.50;77.50;;;29.89;49.85;99961.47;12342199;23;96841;-85
2023/07/16 08:55:36;;;;;;;4.28;3.10;;;30.80;77.10;;;30.11;48.91;99964.38;12341702;23;96914;-85
2023/07/16 09:00:43;;;;;;;4.82;3.15;;;31.00;76.20;;;30.25;47.65;99970.66;12314786;23;96929;-85
2023/07/16 09:05:51;;;;;;;5.30;3.55;;;31.20;74.90;;;30.39;47.85;99978.88;12340252;23;96909;-86
2023/07/16 09:10:56;;;;;;;6.63;2.70;;;31.30;74.40;;;30.60;47.55;99971.84;12341370;23;96653;-86
2023/07/16 09:15:59;;;;;;;4.40;3.17;;;31.50;74.50;;;30.88;47.26;99972.63;12341887;23;96431;-86
2023/07/16 09:21:05;;;;;;;5.05;3.33;;;31.80;73.60;;;31.08;46.21;99967.81;12362095;23;96504;-86
2023/07/16 09:26:38;;;;;;;4.07;3.30;;;32.00;72.60;;;31.30;45.03;99961.56;12362413;23;96798;-90
2023/07/16 09:32:02;;;;;;;6.28;3.42;;;32.30;71.80;;;31.52;44.34;99961.56;12341144;23;96490;-88
2023/07/16 09:37:06;;;;;;;5.22;4.25;;;32.40;70.30;;;31.67;43.71;99961.19;12342206;23;97069;-88
2023/07/16 09:42:10;;;;;;;4.53;3.35;;;32.60;69.60;;;31.81;44.15;99966.63;12315830;23;96851;-88
2023/07/16 09:47:14;;;;;;;6.25;3.90;;;32.70;69.30;;;32.02;43.54;99961.38;12315257;23;97330;-87
2023/07/16 09:52:20;;;;;;;6.45;3.88;;;32.90;69.20;;;32.12;43.57;99955.59;12316556;23;96640;-88
2023/07/16 09:57:26;;;;;;;6.93;4.28;;;33.10;68.20;;;32.29;43.39;99948.56;12340534;23;96969;-88
2023/07/16 10:02:33;;;;;;;6.18;4.97;;;33.20;68.40;;;32.53;41.91;99946.22;12342057;23;96820;-87
2023/07/16 10:07:37;;;;;;;7.27;5.33;;;33.40;67.20;;;32.75;41.53;99946.09;12343375;23;96690;-87
2023/07/16 10:12:41;;;;;;;7.72;5.78;;;33.60;66.40;;;33.03;41.88;99937.56;12342447;23;96718;-87
2023/07/16 10:17:51;;;;;;;7.63;5.00;;;33.90;66.60;;;33.17;41.46;99938.22;12344721;23;96409;-85
2023/07/16 10:22:55;;;;;;;6.25;4.75;;;34.10;65.70;;;33.37;40.14;99938.69;12341936;23;97048;-86
2023/07/16 10:27:58;;;;;;;6.63;5.30;;;34.20;64.60;;;33.50;40.15;99933.00;12344303;23;96351;-85
2023/07/16 10:33:12;;;;;;;7.45;5.72;;;34.40;64.00;;;33.75;39.66;99923.03;12344278;23;96515;-85
2023/07/16 10:38:16;;;;;;;7.47;5.65;;;34.60;63.60;;;33.95;38.63;99920.75;12343459;23;96450;-86
2023/07/16 10:43:20;;;;;;;6.00;5.32;;;34.90;62.50;;;34.13;39.04;99918.69;12343334;23;96408;-87
2023/07/16 10:48:26;;;;;;;6.03;4.85;;;35.00;62.50;;;34.06;38.51;99913.69;12344475;23;96875;-87
2023/07/16 10:53:31;;;;;;;6.88;5.50;;;35.10;61.90;;;34.06;38.63;99916.47;12367806;23;96756;-87
2023/07/16 10:58:37;;;;;;;6.47;5.70;;;35.00;61.80;;;34.08;38.15;99916.97;12352540;23;96405;-87
2023/07/16 11:03:41;;;;;;;8.32;6.03;;;35.00;61.00;;;34.05;38.57;99914.84;12342915;23;96410;-88
2023/07/16 11:08:45;;;;;;;7.65;6.38;;;34.90;60.90;;;34.03;38.57;99911.63;12342610;23;96547;-87
2023/07/16 11:13:49;;;;;;;6.95;6.25;;;34.90;61.10;;;34.21;38.53;99901.31;12342385;23;97137;-87
2023/07/16 11:18:53;;;;;;;7.57;5.93;;;35.10;60.70;;;34.48;37.85;99902.78;12343468;23;96510;-88
2023/07/16 11:24:06;;;;;;;8.15;6.05;;;35.40;60.20;;;34.67;36.77;99892.13;12363700;23;97047;-87
2023/07/16 11:29:15;;;;;;;9.27;6.25;;;35.60;59.20;;;34.62;36.95;99899.78;12335751;23;97003;-87
2023/07/16 11:34:22;;;;;;;8.13;5.30;;;35.60;59.00;;;34.87;35.79;99896.81;12342911;23;97322;-87
2023/07/16 11:39:29;;;;;;;7.00;6.03;;;35.80;58.00;;;34.93;36.00;99897.44;12341638;23;96816;-87
2023/07/16 11:44:34;;;;;;;8.13;5.73;;;35.80;57.40;;;35.16;35.68;99899.84;12343802;23;96573;-87
2023/07/16 11:49:38;;;;;;;7.45;4.88;;;36.00;57.60;;;35.33;35.10;99892.19;12344479;23;96835;-87
2023/07/16 11:54:42;;;;;;;8.77;5.40;;;36.30;57.00;;;35.32;34.92;99895.28;12328364;23;96656;-88
2023/07/16 11:59:45;;;;;;;6.47;5.88;;;36.30;56.80;;;35.21;35.01;99899.63;12344544;23;96872;-87
2023/07/16 12:04:49;;;;;;;6.00;4.97;;;36.10;56.60;;;35.01;34.51;99901.28;12344548;23;97326;-87
2023/07/16 12:09:53;;;;;;;5.78;4.50;;;36.00;56.40;;;34.64;35.22;99900.25;12343448;23;96464;-87
2023/07/16 12:14:56;;;;;;;7.22;4.72;;;35.60;56.20;;;34.51;35.82;99896.63;12340341;23;96873;-88
2023/07/16 12:20:01;;;;;;;6.50;4.70;;;35.40;56.70;;;34.58;35.18;99892.16;12340084;23;96576;-87
2023/07/16 12:25:05;;;;;;;7.57;4.15;;;35.60;56.80;;;34.64;36.38;99887.25;12337218;23;96935;-87
2023/07/16 12:30:09;;;;;;;6.20;4.28;;;35.60;56.80;;;34.85;35.62;99893.59;12342047;23;96478;-87
2023/07/16 12:35:14;;;;;;;5.30;3.70;;;35.80;56.30;;;34.98;35.25;99886.19;12365034;23;96851;-88
2023/07/16 12:40:18;;;;;;;6.72;4.20;;;36.10;55.90;;;35.16;34.44;99892.38;12364576;23;96783;-88
2023/07/16 12:45:22;;;;;;;5.60;4.10;;;36.30;55.50;;;35.03;35.02;99890.72;12338407;23;96907;-88
2023/07/16 12:50:27;;;;;;;4.70;3.97;;;36.20;56.10;;;35.10;34.59;99890.97;12340742;23;96917;-91
2023/07/16 12:55:31;;;;;;;5.22;3.95;;;36.30;55.60;;;34.66;34.17;99884.16;12339684;23;96776;-87
2023/07/16 13:00:35;;;;;;;6.53;3.78;;;35.90;54.70;;;34.34;35.38;99890.03;12341646;23;96512;-88
2023/07/16 13:05:39;;;;;;;6.70;4.22;;;35.40;55.50;;;34.53;36.22;99889.59;12342699;23;96708;-87
2023/07/16 13:10:42;;;;;;;6.32;3.42;;;35.60;56.00;;;34.65;35.58;99899.09;12339556;23;97118;-88
2023/07/16 13:15:47;;;;;;;5.65;3.58;;;35.70;56.10;;;34.43;35.86;99902.97;12345069;23;96398;-87
2023/07/16 13:20:50;;;;;;;4.82;3.33;;;35.50;56.00;;;34.21;36.93;99895.81;12342769;23;96904;-88
2023/07/16 13:25:55;;;;;;;6.35;3.50;;;35.40;57.30;;;34.23;36.64;99897.06;12342684;23;97660;-87
2023/07/16 13:30:59;;;;;;;5.05;3.22;;;35.30;57.40;;;34.62;36.38;99900.59;12365329;23;97503;-87
2023/07/16 13:36:05;;;;;;;7.38;3.97;;;35.90;56.50;;;34.81;35.91;99902.88;12344523;23;97257;-87
2023/07/16 13:41:09;;;;;;;6.03;3.33;;;36.00;56.00;;;35.05;35.88;99905.78;12321497;23;96592;-87
2023/07/16 13:46:13;;;;;;;4.28;2.95;;;36.10;56.20;;;35.67;33.88;99899.31;12367479;23;97092;-87
2023/07/16 13:51:16;;;;;;;7.20;3.67;;;36.50;55.20;;;36.12;33.46;99890.16;12313798;23;97014;-86
2023/07/16 13:56:20;;;;;;;6.57;3.45;;;36.80;54.60;;;36.33;33.77;99890.00;12345513;23;96461;-87
2023/07/16 14:01:24;;;;;;;5.93;3.47;;;37.00;54.80;;;36.54;33.23;99876.06;12358814;23;97153;-87
2023/07/16 14:06:28;;;;;;;6.32;3.30;;;37.20;54.30;;;36.62;32.21;99874.31;12332979;23;96851;-87
2023/07/16 14:11:32;;;;;;;5.30;3.22;;;37.30;53.50;;;36.64;32.55;99869.22;12359958;23;96802;-87
2023/07/16 14:16:35;;;;;;;5.97;3.60;;;37.40;53.50;;;36.48;33.11;99873.88;12344330;23;96880;-85
2023/07/16 14:21:40;;;;;;;4.97;3.38;;;37.40;53.60;;;36.30;33.14;99879.66;12366479;23;96696;-85
2023/07/16 14:26:43;;;;;;;4.63;3.40;;;37.30;53.60;;;36.49;33.61;99865.22;12341090;23;97000;-85
2023/07/16 14:31:48;;;;;;;4.57;2.92;;;37.40;54.20;;;36.66;33.16;99864.16;12342698;23;96491;-86
2023/07/16 14:36:53;;;;;;;7.50;3.58;;;37.70;53.90;;;36.57;33.11;99857.94;12337348;23;97119;-85
2023/07/16 14:41:56;;;;;;;8.52;4.20;;;37.90;53.40;;;36.71;33.51;99863.91;12339526;23;96944;-85
2023/07/16 14:47:00;;;;;;;8.77;3.75;;;38.00;52.90;;;36.85;33.89;99853.22;12336829;23;96854;-86
2023/07/16 14:52:04;;;;;;;7.10;3.95;;;38.40;53.30;;;37.02;33.54;99846.63;12367540;23;97001;-86
2023/07/16 14:57:07;;;;;;;6.82;3.53;;;38.70;53.00;;;37.24;33.39;99847.97;12338951;23;97415;-86
2023/07/16 15:02:11;;;;;;;4.70;3.08;;;39.00;52.90;;;37.57;32.45;99847.69;12366427;23;96623;-87
2023/07/16 15:07:15;;;;;;;4.40;3.28;;;39.40;52.60;;;37.97;31.84;99844.75;12361959;23;96799;-85
2023/07/16 15:12:19;;;;;;;4.50;3.35;;;39.80;52.20;;;38.28;31.63;99843.09;12343179;23;96754;-86
2023/07/16 15:17:23;;;;;;;3.95;3.47;;;40.10;51.80;;;38.37;31.22;99840.88;12339302;23;97037;-86
2023/07/16 15:22:26;;;;;;;4.30;3.45;;;39.90;51.40;;;38.31;30.88;99845.13;12363727;23;96955;-87
2023/07/16 15:27:31;;;;;;;5.72;3.33;;;39.80;50.70;;;38.26;31.92;99850.91;12367189;23;96366;-86
2023/07/16 15:32:36;;;;;;;5.40;3.25;;;39.80;51.70;;;38.33;30.75;99848.34;12341217;23;96971;-86
2023/07/16 15:37:41;;;;;;;7.80;3.78;;;40.00;51.10;;;38.45;30.35;99842.66;12368424;23;97401;-86
2023/07/16 15:42:45;;;;;;;7.20;3.60;;;40.00;50.30;;;38.53;30.25;99851.94;12368952;23;96415;-86
2023/07/16 15:47:56;;;;;;;5.47;3.63;;;40.00;50.10;;;38.41;30.57;99841.78;12367590;23;97321;-86
2023/07/16 15:53:00;;;;;;;7.70;3.35;;;40.00;50.40;;;38.52;30.00;99842.81;12345355;23;96844;-86
2023/07/16 15:58:04;;;;;;;6.68;3.33;;;40.00;49.70;;;38.63;30.14;99837.50;12365899;23;96694;-86
2023/07/16 16:03:07;;;;;;;4.47;2.85;;;40.10;49.90;;;38.53;31.08;99833.31;12366110;23;96740;-87
2023/07/16 16:08:18;;;;;;;4.55;3.40;;;40.10;50.70;;;38.41;31.13;99847.31;12365221;23;96594;-87
2023/07/16 16:13:26;;;;;;;5.63;3.80;;;40.00;50.80;;;38.07;31.10;99840.59;12366852;23;96402;-87
2023/07/16 16:18:29;;;;;;;5.75;4.13;;;39.50;50.70;;;37.84;32.15;99850.72;12339572;23;97426;-86
2023/07/16 16:23:33;;;;;;;4.85;3.70;;;38.90;51.60;;;37.25;32.49;99857.91;12364279;23;96484;-87
2023/07/16 16:28:37;;;;;;;5.60;3.70;;;38.30;52.00;;;36.93;34.08;99859.78;12368518;23;96477;-87
2023/07/16 16:33:41;;;;;;;5.47;3.53;;;37.90;53.10;;;36.53;34.64;99857.84;12342768;23;96841;-86
2023/07/16 16:38:44;;;;;;;4.50;3.50;;;37.50;54.00;;;36.23;35.21;99857.31;12343485;23;96531;-86
2023/07/16 16:43:48;;;;;;;5.82;4.10;;;37.20;54.40;;;35.88;36.01;99852.22;12345869;23;96461;-86
2023/07/16 16:48:51;;;;;;;5.30;3.30;;;37.00;54.70;;;35.79;36.54;99843.22;12368282;23;96839;-86
2023/07/16 16:53:55;;;;;;;7.30;4.38;;;36.80;55.50;;;35.47;36.99;99853.22;12343081;23;96529;-86
2023/07/16 16:58:59;;;;;;;4.43;3.88;;;36.50;56.00;;;35.28;38.39;99864.78;12366810;23;96868;-86
2023/07/16 17:04:02;;;;;;;5.38;3.72;;;36.30;56.80;;;35.17;38.65;99866.38;12342472;23;96791;-86
2023/07/16 17:09:06;;;;;;;4.88;4.18;;;36.20;57.30;;;34.86;39.61;99867.59;12344435;23;96488;-86
2023/07/16 17:14:09;;;;;;;5.28;4.30;;;35.90;57.70;;;34.37;40.24;99877.53;12369816;23;97069;-86
2023/07/16 17:19:13;;;;;;;7.88;3.80;;;35.40;58.70;;;33.93;41.12;99878.91;12366936;23;96716;-86
2023/07/16 17:24:17;;;;;;;5.18;4.13;;;34.90;59.60;;;33.59;43.02;99879.81;12371629;23;96574;-86
2023/07/16 17:29:20;;;;;;;5.07;3.95;;;34.40;61.20;;;33.22;43.60;99871.94;12344307;23;96990;-86
2023/07/16 17:34:25;;;;;;;7.53;4.00;;;34.10;61.70;;;32.94;44.15;99878.97;12346216;23;96628;-86
2023/07/16 17:39:28;;;;;;;5.90;4.28;;;33.80;61.90;;;32.60;45.52;99872.28;12343787;23;96483;-86
2023/07/16 17:44:32;;;;;;;6.60;4.45;;;33.50;62.70;;;32.33;46.42;99883.53;12319635;23;96619;-86
2023/07/16 17:49:36;;;;;;;7.72;4.30;;;33.30;63.60;;;32.05;47.36;99894.78;12340645;23;97004;-86
2023/07/16 17:54:39;;;;;;;6.43;4.63;;;33.00;64.40;;;31.76;48.83;99891.72;12369401;23;96357;-87
2023/07/16 17:59:43;;;;;;;5.78;4.47;;;32.70;65.60;;;31.49;50.21;99900.94;12345237;23;96663;-87
2023/07/16 18:04:47;;;;;;;7.53;4.95;;;32.30;66.50;;;31.21;51.43;99903.84;12344304;23;96735;-87
2023/07/16 18:09:53;;;;;;;6.18;4.68;;;32.10;67.80;;;30.99;51.47;99906.56;12320596;23;96461;-87
2023/07/16 18:14:57;;;;;;;8.88;4.63;;;31.80;68.10;;;30.78;52.10;99900.75;12344137;23;96735;-87
2023/07/16 18:20:03;;;;;;;7.10;4.93;;;31.60;68.60;;;30.57;53.08;99912.13;12345437;23;96481;-87
2023/07/16 18:25:08;;;;;;;6.28;4.30;;;31.40;69.50;;;30.28;53.60;99892.47;12347950;23;96367;-87
2023/07/16 18:30:12;;;;;;;8.52;5.00;;;31.10;70.20;;;30.13;55.16;99909.25;12345193;23;96419;-87
2023/07/16 18:35:16;;;;;;;6.93;5.43;;;30.90;71.20;;;29.89;57.22;99915.69;12344284;23;96420;-87
2023/07/16 18:40:20;;;;;;;8.55;5.10;;;30.70;72.50;;;29.66;57.92;99928.44;12340961;23;96892;-87
2023/07/16 18:45:23;;;;;;;9.27;5.47;;;30.40;73.30;;;29.47;59.23;99939.41;12345204;23;96731;-87
2023/07/16 18:50:27;;;;;;;6.25;5.18;;;30.20;74.20;;;29.23;62.39;99928.59;12344623;23;96422;-87
2023/07/16 18:55:30;;;;;;;6.40;5.13;;;30.10;76.30;;;29.10;63.48;99939.47;12344227;23;96569;-87
2023/07/16 19:00:34;;;;;;;11.68;5.90;;;29.80;77.50;;;28.92;63.67;99938.34;12370025;23;97478;-87
2023/07/16 19:05:38;;;;;;;10.48;5.70;;;29.60;78.10;;;28.83;63.61;99951.84;12322086;23;96488;-87
2023/07/16 19:10:49;;;;;;;8.10;6.15;;;29.50;78.10;;;28.63;64.67;99966.63;12345225;23;96483;-87
2023/07/16 19:15:53;;;;;;;7.63;5.10;;;29.40;78.90;;;28.47;64.67;99973.38;12342987;23;96773;-87
2023/07/16 19:20:57;;;;;;;5.80;5.22;;;29.20;79.20;;;28.28;64.96;99978.78;12366188;23;97285;-87
2023/07/16 19:26:00;;;;;;;5.93;4.82;;;29.00;79.70;;;28.17;65.17;99966.31;12342499;23;96805;-87
2023/07/16 19:31:04;;;;;;;6.00;5.40;;;28.90;79.70;;;28.10;65.43;99982.25;12342003;23;96369;-86
2023/07/16 19:36:09;;;;;;;6.68;5.28;;;28.80;79.80;;;27.94;64.89;99990.59;12349455;23;96393;-86
2023/07/16 19:41:17;;;;;;;7.20;5.55;;;28.70;80.10;;;27.83;65.29;100005.47;12346014;23;96495;-86
2023/07/16 19:46:21;;;;;;;7.22;5.72;;;28.50;80.20;;;27.71;65.99;100005.03;12368438;23;96408;-87
2023/07/16 19:51:25;;;;;;;6.72;6.07;;;28.40;80.60;;;27.59;65.84;99999.91;12367627;23;97243;-87
2023/07/16 19:56:28;;;;;;;7.72;6.90;;;28.30;80.70;;;27.51;66.17;99994.22;12347436;23;96515;-87
2023/07/16 20:01:32;;;;;;;11.90;7.65;;;28.20;81.10;;;27.37;66.51;100004.97;12346134;23;96427;-87
2023/07/16 20:06:45;;;;;;;8.07;7.22;;;28.10;81.50;;;27.31;66.95;100000.66;10541363;27;98433;-87
2023/07/16 20:12:09;;;;;;;7.80;7.10;;;28.00;81.80;;;27.25;67.13;99999.06;10449093;27;96668;-87
2023/07/16 20:17:13;;;;;;;9.32;7.85;;;28.00;82.10;;;27.26;67.53;99998.75;10460278;27;96811;-86
2023/07/16 20:22:16;;;;;;;9.40;7.53;;;28.00;82.30;;;27.23;67.40;99998.50;10461559;27;96639;-87
2023/07/16 20:27:20;;;;;;;8.93;8.02;;;28.00;82.50;;;27.16;67.96;100002.38;10476710;27;97431;-87
2023/07/16 20:32:23;;;;;;;9.70;7.93;;;27.90;82.70;;;27.09;68.26;99996.41;10468646;27;98668;-87
2023/07/16 20:37:27;;;;;;;9.70;8.60;;;27.90;83.20;;;27.00;69.32;100003.53;10492791;27;96547;-87
2023/07/16 20:42:30;;;;;;;8.52;7.50;;;27.80;83.70;;;26.90;69.30;99998.94;10455280;27;96976;-87
2023/07/16 20:47:34;;;;;;;12.30;8.98;;;27.60;84.20;;;26.79;69.64;99981.00;10472973;27;98486;-87
2023/07/16 20:52:43;;;;;;;12.45;8.68;;;27.60;84.50;;;26.67;70.02;99988.69;10456938;27;96614;-87
2023/07/16 20:57:50;;;;;;;12.23;8.70;;;27.50;85.00;;;26.56;70.81;99989.81;10477428;27;96558;-86
2023/07/16 21:02:57;;;;;;;10.63;9.63;;;27.30;85.20;;;26.48;70.88;99990.41;10476948;27;98689;-86